Yithion, Greece
Current Conditions -  °F | °C
As of 2:50 AM on Thursday 18 Dec 2014 (Local Time) from LGKL Reporting Station
NA  
Wind Chill: 45°   Ceiling: NA
Heat Index: 45°   Visibility: NA
Dew Point: 45°   Wind: 3mph
Humidity: 100%   Direction: NA
Pressure: 30"   Gusts: NA
Location:  36.76°N, 22.56°E
Report Text: LGKL 180050Z AUTO VRB03KT //// // ////// 07/07 Q1016 RE//
Loading
Personal Weather Stations






























Interactive Weather Map New forecast layout! Learn more

10-Day Weather Forecast

Advertisements
Track Severe Weather on mobile